sensor_id;sensor_type;location;lat;lon;timestamp;pressure;altitude;pressure_sealevel;temperature;humidity
19114;BME280;9689;51.052;13.772;2022-07-29T00:04:02;100335.94;;;16.64;49.09
19114;BME280;9689;51.052;13.772;2022-07-29T00:09:03;100340.22;;;16.65;48.89
19114;BME280;9689;51.052;13.772;2022-07-29T00:14:04;100343.81;;;16.61;48.93
19114;BME280;9689;51.052;13.772;2022-07-29T00:19:06;100346.78;;;16.50;49.46
19114;BME280;9689;51.052;13.772;2022-07-29T00:24:07;100342.56;;;16.48;49.50
19114;BME280;9689;51.052;13.772;2022-07-29T00:29:08;100325.88;;;16.31;49.93
19114;BME280;9689;51.052;13.772;2022-07-29T00:34:30;100323.28;;;16.31;50.20
19114;BME280;9689;51.052;13.772;2022-07-29T00:39:49;100323.56;;;16.22;50.82
19114;BME280;9689;51.052;13.772;2022-07-29T00:44:49;100316.13;;;16.12;51.38
19114;BME280;9689;51.052;13.772;2022-07-29T00:49:51;100311.28;;;16.03;51.84
19114;BME280;9689;51.052;13.772;2022-07-29T00:54:52;100312.31;;;15.97;52.13
19114;BME280;9689;51.052;13.772;2022-07-29T00:59:53;100308.19;;;15.92;52.73
19114;BME280;9689;51.052;13.772;2022-07-29T01:04:55;100300.03;;;15.77;53.35
19114;BME280;9689;51.052;13.772;2022-07-29T01:09:58;100285.34;;;15.77;53.55
19114;BME280;9689;51.052;13.772;2022-07-29T01:14:59;100286.56;;;15.66;54.31
19114;BME280;9689;51.052;13.772;2022-07-29T01:20:07;100281.41;;;15.66;54.45
19114;BME280;9689;51.052;13.772;2022-07-29T01:25:32;100276.41;;;15.59;55.24
19114;BME280;9689;51.052;13.772;2022-07-29T01:30:42;100278.38;;;15.53;55.57
19114;BME280;9689;51.052;13.772;2022-07-29T01:35:45;100281.94;;;15.48;55.82
19114;BME280;9689;51.052;13.772;2022-07-29T01:40:49;100269.88;;;15.49;56.26
19114;BME280;9689;51.052;13.772;2022-07-29T01:45:57;100261.31;;;15.47;56.40
19114;BME280;9689;51.052;13.772;2022-07-29T01:51:03;100266.69;;;15.41;56.89
19114;BME280;9689;51.052;13.772;2022-07-29T01:56:08;100262.41;;;15.40;57.15
19114;BME280;9689;51.052;13.772;2022-07-29T02:01:11;100272.25;;;15.28;57.05
19114;BME280;9689;51.052;13.772;2022-07-29T02:06:16;100270.38;;;15.33;57.27
19114;BME280;9689;51.052;13.772;2022-07-29T02:11:19;100272.06;;;15.34;57.22
19114;BME280;9689;51.052;13.772;2022-07-29T02:16:22;100264.31;;;15.34;57.05
19114;BME280;9689;51.052;13.772;2022-07-29T02:21:25;100260.09;;;15.30;57.35
19114;BME280;9689;51.052;13.772;2022-07-29T02:26:27;100257.56;;;15.29;57.57
19114;BME280;9689;51.052;13.772;2022-07-29T02:31:33;100258.41;;;15.29;57.13
19114;BME280;9689;51.052;13.772;2022-07-29T02:36:34;100248.94;;;15.30;57.68
19114;BME280;9689;51.052;13.772;2022-07-29T02:41:40;100244.69;;;15.27;57.62
19114;BME280;9689;51.052;13.772;2022-07-29T02:46:46;100261.34;;;15.18;58.35
19114;BME280;9689;51.052;13.772;2022-07-29T02:51:53;100253.44;;;15.23;57.95
19114;BME280;9689;51.052;13.772;2022-07-29T02:56:56;100247.63;;;15.16;58.12
19114;BME280;9689;51.052;13.772;2022-07-29T03:02:01;100258.81;;;15.17;58.26
19114;BME280;9689;51.052;13.772;2022-07-29T03:07:03;100250.09;;;15.19;58.28
19114;BME280;9689;51.052;13.772;2022-07-29T03:12:05;100262.28;;;15.16;58.21
19114;BME280;9689;51.052;13.772;2022-07-29T03:17:09;100253.81;;;15.11;58.26
19114;BME280;9689;51.052;13.772;2022-07-29T03:22:10;100251.31;;;15.09;58.95
19114;BME280;9689;51.052;13.772;2022-07-29T03:27:11;100255.47;;;15.13;58.88
19114;BME280;9689;51.052;13.772;2022-07-29T03:32:13;100258.84;;;15.15;58.78
19114;BME280;9689;51.052;13.772;2022-07-29T03:37:22;100243.47;;;15.11;59.05
19114;BME280;9689;51.052;13.772;2022-07-29T03:42:25;100240.88;;;15.11;59.23
19114;BME280;9689;51.052;13.772;2022-07-29T03:47:35;100240.84;;;15.12;58.67
19114;BME280;9689;51.052;13.772;2022-07-29T03:52:49;100236.81;;;15.03;59.54
19114;BME280;9689;51.052;13.772;2022-07-29T03:57:50;100229.19;;;14.99;59.03
19114;BME280;9689;51.052;13.772;2022-07-29T04:02:52;100241.22;;;15.00;59.54
19114;BME280;9689;51.052;13.772;2022-07-29T04:07:53;100239.50;;;15.00;59.79
19114;BME280;9689;51.052;13.772;2022-07-29T04:12:53;100244.38;;;15.09;59.53
19114;BME280;9689;51.052;13.772;2022-07-29T04:17:55;100245.91;;;15.15;59.68
19114;BME280;9689;51.052;13.772;2022-07-29T04:22:56;100249.16;;;15.22;59.14
19114;BME280;9689;51.052;13.772;2022-07-29T04:27:57;100243.59;;;15.34;59.26
19114;BME280;9689;51.052;13.772;2022-07-29T04:33:03;100250.91;;;15.48;58.96
19114;BME280;9689;51.052;13.772;2022-07-29T04:38:05;100248.66;;;15.65;58.52
19114;BME280;9689;51.052;13.772;2022-07-29T04:43:15;100246.19;;;15.87;57.99
19114;BME280;9689;51.052;13.772;2022-07-29T04:48:23;100248.38;;;15.99;57.77
19114;BME280;9689;51.052;13.772;2022-07-29T04:53:27;100252.69;;;15.99;57.17
19114;BME280;9689;51.052;13.772;2022-07-29T04:58:28;100246.75;;;15.97;57.34
19114;BME280;9689;51.052;13.772;2022-07-29T05:03:30;100244.03;;;16.00;57.42
19114;BME280;9689;51.052;13.772;2022-07-29T05:08:30;100242.38;;;16.23;56.86
19114;BME280;9689;51.052;13.772;2022-07-29T05:13:31;100234.03;;;16.38;55.98
19114;BME280;9689;51.052;13.772;2022-07-29T05:18:45;100234.34;;;16.29;56.17
19114;BME280;9689;51.052;13.772;2022-07-29T05:23:47;100236.09;;;16.52;55.46
19114;BME280;9689;51.052;13.772;2022-07-29T05:28:48;100243.19;;;16.71;55.53
19114;BME280;9689;51.052;13.772;2022-07-29T05:33:50;100246.50;;;16.75;55.72
19114;BME280;9689;51.052;13.772;2022-07-29T05:38:50;100240.41;;;16.76;55.90
19114;BME280;9689;51.052;13.772;2022-07-29T05:43:51;100241.91;;;16.59;55.90
19114;BME280;9689;51.052;13.772;2022-07-29T05:48:53;100243.38;;;16.89;55.57
19114;BME280;9689;51.052;13.772;2022-07-29T05:53:54;100243.81;;;17.22;54.85
19114;BME280;9689;51.052;13.772;2022-07-29T05:58:55;100244.88;;;17.39;53.91
19114;BME280;9689;51.052;13.772;2022-07-29T06:03:57;100253.47;;;17.62;53.59
19114;BME280;9689;51.052;13.772;2022-07-29T06:08:58;100250.22;;;17.77;53.25
19114;BME280;9689;51.052;13.772;2022-07-29T06:14:11;100244.81;;;18.03;52.68
19114;BME280;9689;51.052;13.772;2022-07-29T06:19:13;100251.13;;;17.76;52.38
19114;BME280;9689;51.052;13.772;2022-07-29T06:24:14;100241.72;;;18.34;50.74
19114;BME280;9689;51.052;13.772;2022-07-29T06:29:16;100244.78;;;18.81;50.50
19114;BME280;9689;51.052;13.772;2022-07-29T06:34:18;100241.22;;;19.21;49.16
19114;BME280;9689;51.052;13.772;2022-07-29T06:39:19;100247.91;;;19.44;48.45
19114;BME280;9689;51.052;13.772;2022-07-29T06:44:20;100249.50;;;19.29;49.02
19114;BME280;9689;51.052;13.772;2022-07-29T06:49:22;100261.16;;;19.57;48.37
19114;BME280;9689;51.052;13.772;2022-07-29T06:54:25;100256.09;;;19.72;48.23
19114;BME280;9689;51.052;13.772;2022-07-29T06:59:26;100252.31;;;20.13;46.79
19114;BME280;9689;51.052;13.772;2022-07-29T07:04:35;100258.53;;;20.26;46.28
19114;BME280;9689;51.052;13.772;2022-07-29T07:09:36;100258.19;;;20.16;46.15
19114;BME280;9689;51.052;13.772;2022-07-29T07:14:42;100260.34;;;20.42;45.80
19114;BME280;9689;51.052;13.772;2022-07-29T07:19:44;100253.78;;;20.99;44.64
19114;BME280;9689;51.052;13.772;2022-07-29T07:24:45;100257.75;;;21.37;44.75
19114;BME280;9689;51.052;13.772;2022-07-29T07:35:46;100253.50;;;21.50;43.41
19114;BME280;9689;51.052;13.772;2022-07-29T07:40:46;100258.13;;;21.76;42.88
19114;BME280;9689;51.052;13.772;2022-07-29T07:45:47;100248.53;;;21.76;43.29
19114;BME280;9689;51.052;13.772;2022-07-29T07:51:02;100237.78;;;22.10;41.86
19114;BME280;9689;51.052;13.772;2022-07-29T07:56:03;100233.41;;;22.25;42.00
19114;BME280;9689;51.052;13.772;2022-07-29T08:01:11;100249.66;;;21.86;42.55
19114;BME280;9689;51.052;13.772;2022-07-29T08:06:13;100235.28;;;22.08;42.55
19114;BME280;9689;51.052;13.772;2022-07-29T08:11:13;100227.72;;;22.75;40.70
19114;BME280;9689;51.052;13.772;2022-07-29T08:16:14;100218.38;;;23.52;39.27
19114;BME280;9689;51.052;13.772;2022-07-29T08:21:17;100213.97;;;23.91;39.48
19114;BME280;9689;51.052;13.772;2022-07-29T08:26:18;100202.22;;;24.10;38.75
19114;BME280;9689;51.052;13.772;2022-07-29T08:31:20;100199.31;;;24.39;38.64
19114;BME280;9689;51.052;13.772;2022-07-29T08:36:22;100196.31;;;24.81;37.85
19114;BME280;9689;51.052;13.772;2022-07-29T08:41:23;100191.31;;;25.25;37.04
19114;BME280;9689;51.052;13.772;2022-07-29T08:46:24;100198.09;;;25.52;36.37
19114;BME280;9689;51.052;13.772;2022-07-29T08:51:26;100203.28;;;25.29;36.54
19114;BME280;9689;51.052;13.772;2022-07-29T08:56:28;100196.44;;;25.62;36.06
19114;BME280;9689;51.052;13.772;2022-07-29T09:01:33;100182.31;;;25.98;35.93
19114;BME280;9689;51.052;13.772;2022-07-29T09:06:46;100182.75;;;26.14;35.07
19114;BME280;9689;51.052;13.772;2022-07-29T09:11:47;100172.81;;;26.73;34.35
19114;BME280;9689;51.052;13.772;2022-07-29T09:16:53;100169.38;;;27.37;33.49
19114;BME280;9689;51.052;13.772;2022-07-29T09:21:58;100166.44;;;28.02;33.16
19114;BME280;9689;51.052;13.772;2022-07-29T09:27:02;100155.84;;;28.33;31.84
19114;BME280;9689;51.052;13.772;2022-07-29T09:32:06;100156.53;;;28.35;32.19
19114;BME280;9689;51.052;13.772;2022-07-29T09:37:08;100146.25;;;28.92;31.55
19114;BME280;9689;51.052;13.772;2022-07-29T09:42:08;100147.19;;;29.00;30.61
19114;BME280;9689;51.052;13.772;2022-07-29T09:47:10;100143.97;;;29.16;30.46
19114;BME280;9689;51.052;13.772;2022-07-29T09:52:12;100148.72;;;29.13;30.55
19114;BME280;9689;51.052;13.772;2022-07-29T09:57:24;100153.09;;;29.32;30.54
19114;BME280;9689;51.052;13.772;2022-07-29T10:02:31;100157.59;;;29.22;30.06
19114;BME280;9689;51.052;13.772;2022-07-29T10:07:47;100147.50;;;29.45;29.77
19114;BME280;9689;51.052;13.772;2022-07-29T10:12:54;100145.44;;;29.39;29.75
19114;BME280;9689;51.052;13.772;2022-07-29T10:17:59;100138.09;;;29.70;29.39
19114;BME280;9689;51.052;13.772;2022-07-29T10:23:02;100132.44;;;29.83;28.56
19114;BME280;9689;51.052;13.772;2022-07-29T10:28:03;100129.88;;;29.26;29.57
19114;BME280;9689;51.052;13.772;2022-07-29T10:33:14;100133.44;;;28.67;30.40
19114;BME280;9689;51.052;13.772;2022-07-29T10:38:41;100133.19;;;28.70;30.41
19114;BME280;9689;51.052;13.772;2022-07-29T10:43:46;100123.44;;;28.90;30.45
19114;BME280;9689;51.052;13.772;2022-07-29T10:49:06;100127.34;;;28.86;30.42
19114;BME280;9689;51.052;13.772;2022-07-29T10:54:10;100132.91;;;29.31;29.60
19114;BME280;9689;51.052;13.772;2022-07-29T10:59:25;100128.44;;;29.41;29.04
19114;BME280;9689;51.052;13.772;2022-07-29T11:04:58;100128.84;;;29.37;28.80
19114;BME280;9689;51.052;13.772;2022-07-29T11:10:23;100113.44;;;29.32;29.26
19114;BME280;9689;51.052;13.772;2022-07-29T11:15:52;100108.47;;;29.19;29.30
19114;BME280;9689;51.052;13.772;2022-07-29T11:20:53;100103.78;;;29.03;29.74
19114;BME280;9689;51.052;13.772;2022-07-29T11:26:15;100104.78;;;29.02;29.78
19114;BME280;9689;51.052;13.772;2022-07-29T11:31:30;100104.81;;;29.30;29.46
19114;BME280;9689;51.052;13.772;2022-07-29T11:36:32;100101.09;;;29.23;29.55
19114;BME280;9689;51.052;13.772;2022-07-29T11:41:34;100103.72;;;29.23;29.66
19114;BME280;9689;51.052;13.772;2022-07-29T11:46:43;100093.81;;;29.25;29.91
19114;BME280;9689;51.052;13.772;2022-07-29T11:51:50;100095.00;;;29.50;29.36
19114;BME280;9689;51.052;13.772;2022-07-29T11:56:53;100083.72;;;29.94;29.06
19114;BME280;9689;51.052;13.772;2022-07-29T12:01:54;100079.28;;;29.77;29.08
19114;BME280;9689;51.052;13.772;2022-07-29T12:07:16;100075.72;;;29.86;28.60
19114;BME280;9689;51.052;13.772;2022-07-29T12:12:20;100073.97;;;30.49;28.32
19114;BME280;9689;51.052;13.772;2022-07-29T12:17:26;100078.59;;;30.47;27.75
19114;BME280;9689;51.052;13.772;2022-07-29T12:22:30;100075.53;;;31.05;27.19
19114;BME280;9689;51.052;13.772;2022-07-29T12:27:33;100072.19;;;31.29;27.00
19114;BME280;9689;51.052;13.772;2022-07-29T12:32:40;100069.19;;;30.98;27.49
19114;BME280;9689;51.052;13.772;2022-07-29T12:37:43;100065.69;;;30.97;27.57
19114;BME280;9689;51.052;13.772;2022-07-29T12:43:06;100065.88;;;30.69;28.06
19114;BME280;9689;51.052;13.772;2022-07-29T12:48:08;100069.91;;;30.37;28.48
19114;BME280;9689;51.052;13.772;2022-07-29T12:53:11;100064.22;;;30.68;28.12
19114;BME280;9689;51.052;13.772;2022-07-29T12:58:14;100053.66;;;30.58;27.87
19114;BME280;9689;51.052;13.772;2022-07-29T13:03:25;100049.75;;;30.89;27.85
19114;BME280;9689;51.052;13.772;2022-07-29T13:08:26;100045.16;;;30.99;27.62
19114;BME280;9689;51.052;13.772;2022-07-29T13:13:29;100039.53;;;30.49;28.32
19114;BME280;9689;51.052;13.772;2022-07-29T13:18:31;100041.34;;;30.67;28.37
19114;BME280;9689;51.052;13.772;2022-07-29T13:23:33;100042.16;;;30.94;27.71
19114;BME280;9689;51.052;13.772;2022-07-29T13:28:38;100035.81;;;30.87;27.51
19114;BME280;9689;51.052;13.772;2022-07-29T13:33:42;100037.53;;;30.96;27.16
19114;BME280;9689;51.052;13.772;2022-07-29T13:38:43;100037.78;;;31.19;27.65
19114;BME280;9689;51.052;13.772;2022-07-29T13:43:45;100028.97;;;30.76;27.65
19114;BME280;9689;51.052;13.772;2022-07-29T13:48:48;100022.81;;;30.49;28.30
19114;BME280;9689;51.052;13.772;2022-07-29T13:53:50;100033.09;;;30.52;28.89
19114;BME280;9689;51.052;13.772;2022-07-29T13:58:52;100025.63;;;30.47;28.50
19114;BME280;9689;51.052;13.772;2022-07-29T14:03:52;100020.81;;;30.24;29.32
19114;BME280;9689;51.052;13.772;2022-07-29T14:08:54;100023.91;;;30.91;28.20
19114;BME280;9689;51.052;13.772;2022-07-29T14:13:56;100014.56;;;31.73;27.10
19114;BME280;9689;51.052;13.772;2022-07-29T14:18:57;100014.34;;;31.06;27.30
19114;BME280;9689;51.052;13.772;2022-07-29T14:23:58;100006.94;;;31.18;27.14
19114;BME280;9689;51.052;13.772;2022-07-29T14:29:00;100001.53;;;31.28;27.09
19114;BME280;9689;51.052;13.772;2022-07-29T14:34:00;99996.47;;;31.09;27.64
19114;BME280;9689;51.052;13.772;2022-07-29T14:39:01;100002.50;;;31.27;27.40
19114;BME280;9689;51.052;13.772;2022-07-29T14:44:04;99998.91;;;31.37;27.12
19114;BME280;9689;51.052;13.772;2022-07-29T14:49:04;99997.34;;;32.02;26.59
19114;BME280;9689;51.052;13.772;2022-07-29T14:54:08;100001.50;;;32.13;26.07
19114;BME280;9689;51.052;13.772;2022-07-29T14:59:10;100003.50;;;32.44;26.05
19114;BME280;9689;51.052;13.772;2022-07-29T15:04:10;100009.31;;;32.39;25.63
19114;BME280;9689;51.052;13.772;2022-07-29T15:09:11;100002.31;;;32.38;25.87
19114;BME280;9689;51.052;13.772;2022-07-29T15:14:13;100004.19;;;31.28;26.89
19114;BME280;9689;51.052;13.772;2022-07-29T15:19:14;99990.88;;;30.32;28.07
19114;BME280;9689;51.052;13.772;2022-07-29T15:24:15;100001.28;;;30.25;28.62
19114;BME280;9689;51.052;13.772;2022-07-29T15:29:17;99994.72;;;29.93;29.15
19114;BME280;9689;51.052;13.772;2022-07-29T15:34:18;99985.44;;;29.43;29.86
19114;BME280;9689;51.052;13.772;2022-07-29T15:39:20;99984.94;;;29.29;30.23
19114;BME280;9689;51.052;13.772;2022-07-29T15:44:22;99980.63;;;29.75;29.38
19114;BME280;9689;51.052;13.772;2022-07-29T15:49:23;99981.88;;;29.62;30.13
19114;BME280;9689;51.052;13.772;2022-07-29T15:54:47;99963.13;;;29.46;30.34
19114;BME280;9689;51.052;13.772;2022-07-29T15:59:49;99964.22;;;29.07;31.28
19114;BME280;9689;51.052;13.772;2022-07-29T16:04:50;99961.25;;;28.72;31.79
19114;BME280;9689;51.052;13.772;2022-07-29T16:09:51;99972.50;;;28.36;32.30
19114;BME280;9689;51.052;13.772;2022-07-29T16:14:53;99967.25;;;28.26;31.87
19114;BME280;9689;51.052;13.772;2022-07-29T16:19:53;99960.28;;;28.15;32.43
19114;BME280;9689;51.052;13.772;2022-07-29T16:24:54;99957.09;;;28.12;32.59
19114;BME280;9689;51.052;13.772;2022-07-29T16:29:56;99952.06;;;28.08;32.55
19114;BME280;9689;51.052;13.772;2022-07-29T16:35:00;99959.19;;;27.88;32.92
19114;BME280;9689;51.052;13.772;2022-07-29T16:40:02;99955.56;;;27.70;33.42
19114;BME280;9689;51.052;13.772;2022-07-29T16:45:05;99951.91;;;27.41;33.50
19114;BME280;9689;51.052;13.772;2022-07-29T16:50:07;99948.28;;;27.32;33.77
19114;BME280;9689;51.052;13.772;2022-07-29T16:55:08;99951.69;;;27.13;33.77
19114;BME280;9689;51.052;13.772;2022-07-29T17:00:12;99950.97;;;27.01;34.43
19114;BME280;9689;51.052;13.772;2022-07-29T17:05:13;99955.59;;;26.87;34.34
19114;BME280;9689;51.052;13.772;2022-07-29T17:10:14;99945.41;;;26.94;34.07
19114;BME280;9689;51.052;13.772;2022-07-29T17:15:16;99943.75;;;26.93;33.70
19114;BME280;9689;51.052;13.772;2022-07-29T17:20:17;99944.44;;;26.95;34.09
19114;BME280;9689;51.052;13.772;2022-07-29T17:25:18;99957.88;;;26.92;34.35
19114;BME280;9689;51.052;13.772;2022-07-29T17:30:21;99942.91;;;26.93;34.17
19114;BME280;9689;51.052;13.772;2022-07-29T17:35:22;99942.38;;;26.78;34.65
19114;BME280;9689;51.052;13.772;2022-07-29T17:40:41;99944.63;;;26.51;34.83
19114;BME280;9689;51.052;13.772;2022-07-29T17:45:43;99945.59;;;26.29;35.35
19114;BME280;9689;51.052;13.772;2022-07-29T17:50:49;99944.94;;;26.15;35.64
19114;BME280;9689;51.052;13.772;2022-07-29T17:55:50;99943.47;;;26.01;35.73
19114;BME280;9689;51.052;13.772;2022-07-29T18:00:52;99941.84;;;25.89;35.95
19114;BME280;9689;51.052;13.772;2022-07-29T18:05:52;99930.53;;;25.77;36.04
19114;BME280;9689;51.052;13.772;2022-07-29T18:10:53;99940.41;;;25.63;36.87
19114;BME280;9689;51.052;13.772;2022-07-29T18:15:55;99941.94;;;25.66;36.53
19114;BME280;9689;51.052;13.772;2022-07-29T18:20:59;99948.34;;;25.41;36.99
19114;BME280;9689;51.052;13.772;2022-07-29T18:26:00;99944.53;;;25.22;37.76
19114;BME280;9689;51.052;13.772;2022-07-29T18:31:02;99948.13;;;25.09;38.33
19114;BME280;9689;51.052;13.772;2022-07-29T18:36:03;99955.88;;;24.88;38.55
19114;BME280;9689;51.052;13.772;2022-07-29T18:41:10;99941.28;;;24.73;38.98
19114;BME280;9689;51.052;13.772;2022-07-29T18:46:12;99947.13;;;24.53;39.25
19114;BME280;9689;51.052;13.772;2022-07-29T18:51:13;99948.78;;;24.43;39.80
19114;BME280;9689;51.052;13.772;2022-07-29T18:56:14;99952.81;;;24.24;40.23
19114;BME280;9689;51.052;13.772;2022-07-29T19:01:16;99953.63;;;24.25;40.57
19114;BME280;9689;51.052;13.772;2022-07-29T19:06:17;99963.41;;;23.98;40.97
19114;BME280;9689;51.052;13.772;2022-07-29T19:11:24;99965.47;;;23.82;41.40
19114;BME280;9689;51.052;13.772;2022-07-29T19:16:26;99975.69;;;23.73;41.93
19114;BME280;9689;51.052;13.772;2022-07-29T19:21:27;99980.28;;;23.58;42.09
19114;BME280;9689;51.052;13.772;2022-07-29T19:26:28;99988.34;;;23.55;42.40
19114;BME280;9689;51.052;13.772;2022-07-29T19:31:30;99997.78;;;23.58;42.21
19114;BME280;9689;51.052;13.772;2022-07-29T19:36:31;99990.06;;;23.43;42.75
19114;BME280;9689;51.052;13.772;2022-07-29T19:41:32;99992.69;;;23.43;42.82
19114;BME280;9689;51.052;13.772;2022-07-29T19:46:34;99989.47;;;23.27;43.22
19114;BME280;9689;51.052;13.772;2022-07-29T19:51:35;100001.59;;;23.28;43.34
19114;BME280;9689;51.052;13.772;2022-07-29T19:56:36;100002.03;;;23.21;43.40
19114;BME280;9689;51.052;13.772;2022-07-29T20:01:41;100015.13;;;23.21;43.19
19114;BME280;9689;51.052;13.772;2022-07-29T20:06:42;100022.25;;;23.19;43.71
19114;BME280;9689;51.052;13.772;2022-07-29T20:11:43;100020.47;;;23.20;43.97
19114;BME280;9689;51.052;13.772;2022-07-29T20:16:45;100023.63;;;23.12;43.87
19114;BME280;9689;51.052;13.772;2022-07-29T20:21:46;100025.31;;;23.13;43.98
19114;BME280;9689;51.052;13.772;2022-07-29T20:26:48;100018.59;;;23.09;44.25
19114;BME280;9689;51.052;13.772;2022-07-29T20:31:50;100013.38;;;22.96;44.86
19114;BME280;9689;51.052;13.772;2022-07-29T20:36:54;100022.25;;;22.80;45.45
19114;BME280;9689;51.052;13.772;2022-07-29T20:41:56;100019.41;;;22.71;45.71
19114;BME280;9689;51.052;13.772;2022-07-29T20:46:58;100021.41;;;22.67;45.98
19114;BME280;9689;51.052;13.772;2022-07-29T20:51:59;100021.31;;;22.56;46.35
19114;BME280;9689;51.052;13.772;2022-07-29T20:57:00;100025.75;;;22.40;46.77
19114;BME280;9689;51.052;13.772;2022-07-29T21:02:03;100024.88;;;22.27;47.46
19114;BME280;9689;51.052;13.772;2022-07-29T21:07:03;100020.03;;;22.21;47.96
19114;BME280;9689;51.052;13.772;2022-07-29T21:12:05;100034.13;;;22.05;48.34
19114;BME280;9689;51.052;13.772;2022-07-29T21:17:07;100041.03;;;22.06;48.64
19114;BME280;9689;51.052;13.772;2022-07-29T21:22:08;100029.38;;;21.97;49.04
19114;BME280;9689;51.052;13.772;2022-07-29T21:27:09;100029.66;;;21.93;49.23
19114;BME280;9689;51.052;13.772;2022-07-29T21:32:28;100034.06;;;21.92;49.47
19114;BME280;9689;51.052;13.772;2022-07-29T21:37:29;100032.88;;;21.83;49.76
19114;BME280;9689;51.052;13.772;2022-07-29T21:42:30;100030.06;;;21.86;49.91
19114;BME280;9689;51.052;13.772;2022-07-29T21:47:32;100035.28;;;21.86;50.26
19114;BME280;9689;51.052;13.772;2022-07-29T21:52:33;100031.84;;;21.86;50.79
19114;BME280;9689;51.052;13.772;2022-07-29T21:57:35;100027.91;;;21.93;50.41
19114;BME280;9689;51.052;13.772;2022-07-29T22:02:38;100025.97;;;21.82;50.83
19114;BME280;9689;51.052;13.772;2022-07-29T22:07:39;100030.25;;;21.83;51.03
19114;BME280;9689;51.052;13.772;2022-07-29T22:12:55;100032.38;;;21.91;50.99
19114;BME280;9689;51.052;13.772;2022-07-29T22:17:58;100038.25;;;21.95;51.34
19114;BME280;9689;51.052;13.772;2022-07-29T22:22:58;100032.09;;;21.96;51.43
19114;BME280;9689;51.052;13.772;2022-07-29T22:27:59;100024.06;;;21.99;51.30
19114;BME280;9689;51.052;13.772;2022-07-29T22:33:01;100028.00;;;21.92;51.65
19114;BME280;9689;51.052;13.772;2022-07-29T22:38:02;100030.25;;;21.83;52.07
19114;BME280;9689;51.052;13.772;2022-07-29T22:43:02;100031.59;;;21.76;52.25
19114;BME280;9689;51.052;13.772;2022-07-29T22:48:05;100020.19;;;21.77;52.29
19114;BME280;9689;51.052;13.772;2022-07-29T22:53:06;100024.13;;;21.70;52.64
19114;BME280;9689;51.052;13.772;2022-07-29T22:58:06;100026.16;;;21.65;52.70
19114;BME280;9689;51.052;13.772;2022-07-29T23:03:08;100019.25;;;21.64;52.71
19114;BME280;9689;51.052;13.772;2022-07-29T23:08:09;100009.41;;;21.69;52.83
19114;BME280;9689;51.052;13.772;2022-07-29T23:13:10;100013.38;;;21.60;52.97
19114;BME280;9689;51.052;13.772;2022-07-29T23:18:12;100013.09;;;21.65;52.51
19114;BME280;9689;51.052;13.772;2022-07-29T23:23:12;100016.66;;;21.64;53.06
19114;BME280;9689;51.052;13.772;2022-07-29T23:28:13;100011.81;;;21.43;53.54
19114;BME280;9689;51.052;13.772;2022-07-29T23:33:15;100011.81;;;21.43;53.80
19114;BME280;9689;51.052;13.772;2022-07-29T23:38:16;100020.03;;;21.51;53.23
19114;BME280;9689;51.052;13.772;2022-07-29T23:43:16;100035.34;;;21.28;53.58
19114;BME280;9689;51.052;13.772;2022-07-29T23:48:18;100022.22;;;21.30;53.40
19114;BME280;9689;51.052;13.772;2022-07-29T23:53:19;100028.16;;;21.46;53.42
19114;BME280;9689;51.052;13.772;2022-07-29T23:58:20;100033.75;;;21.40;53.13
